Girvin, Texas
Current Conditions -  °F | °C
As of 1:53 AM on Saturday 25 Oct 2014 (Local Time) from KFST Reporting Station
Clear Clear  
Wind Chill: 64°   Ceiling: Unl
Heat Index: 64°   Visibility: 10mi
Dew Point: 59°   Wind: 10mph
Humidity: 84%   Direction: 160°SSE
Pressure: 30.17"   Gusts: NA
Location:  31.06°N, 102.39°W
Report Text: KFST 250653Z AUTO 16009KT 10SM CLR 18/15 A3017 RMK AO2 SLP174 T01780150
Loading
Personal Weather Stations






























Interactive Weather Map
Tropical Storm Tracking
New forecast layout! Learn more

10-Day Weather Forecast

Advertisements
Track Severe Weather on mobile